Time;durP1;ratioP1;P1;durP2;ratioP2;P2;SDS_P1;SDS_P2;PMS_P1;PMS_P2;Temp;Humidity;BMP_temperature;BMP_pressure;BME280_temperature;BME280_humidity;BME280_pressure;Samples;Min_cycle;Max_cycle;Signal;HPM_P1;HPM_P2
2021/06/03 00:02:23;;;;;;;2.70;0.90;;;21.00;61.30;;;;;;5010251;28;20429;-72
2021/06/03 00:04:48;;;;;;;4.10;1.10;;;21.00;61.70;;;;;;4994502;28;20041;-73
2021/06/03 00:07:14;;;;;;;2.95;1.08;;;21.00;61.40;;;;;;4989396;28;20035;-76
2021/06/03 00:09:41;;;;;;;4.20;1.50;;;21.00;61.70;;;;;;4991380;28;20062;-73
2021/06/03 00:12:08;;;;;;;4.10;1.67;;;21.00;61.80;;;;;;4975188;28;20030;-74
2021/06/03 00:14:35;;;;;;;1.70;1.30;;;21.00;62.30;;;;;;4991578;28;20026;-74
2021/06/03 00:17:03;;;;;;;1.90;1.40;;;21.00;62.40;;;;;;4998094;28;20022;-74
2021/06/03 00:19:29;;;;;;;4.90;1.50;;;21.00;62.50;;;;;;5011971;28;20037;-75
2021/06/03 00:21:54;;;;;;;2.45;1.83;;;20.90;62.60;;;;;;5011718;28;20034;-73
2021/06/03 00:24:21;;;;;;;4.05;1.38;;;20.90;63.20;;;;;;5011385;28;20486;-73
2021/06/03 00:26:47;;;;;;;4.13;1.27;;;20.90;63.20;;;;;;5010420;28;20033;-73
2021/06/03 00:29:14;;;;;;;3.30;1.60;;;20.90;63.10;;;;;;5010125;28;20520;-73
2021/06/03 00:31:40;;;;;;;3.25;1.70;;;20.90;63.30;;;;;;4994046;28;20061;-73
2021/06/03 00:34:06;;;;;;;2.92;1.20;;;20.90;64.00;;;;;;5012887;28;20067;-73
2021/06/03 00:36:32;;;;;;;2.03;1.48;;;20.80;63.60;;;;;;5013129;28;20084;-74
2021/06/03 00:38:58;;;;;;;2.45;1.40;;;20.90;63.90;;;;;;5014763;28;20101;-73
2021/06/03 00:41:23;;;;;;;3.17;1.40;;;20.80;64.20;;;;;;4997093;28;20077;-72
2021/06/03 00:43:49;;;;;;;2.92;1.30;;;20.80;64.40;;;;;;5013842;28;20026;-72
2021/06/03 00:46:15;;;;;;;3.03;1.50;;;20.70;64.60;;;;;;5015113;28;20029;-73
2021/06/03 00:48:41;;;;;;;3.05;1.65;;;20.70;64.80;;;;;;5013924;28;20117;-73
2021/06/03 00:51:08;;;;;;;3.65;1.67;;;20.60;65.10;;;;;;5013968;28;20406;-73
2021/06/03 00:53:40;;;;;;;3.47;1.50;;;20.60;65.40;;;;;;5014295;28;20034;-74
2021/06/03 00:56:06;;;;;;;3.22;1.90;;;20.60;65.50;;;;;;5014855;28;20045;-76
2021/06/03 00:58:34;;;;;;;3.70;1.90;;;20.60;65.90;;;;;;5012696;28;20493;-74
2021/06/03 01:01:00;;;;;;;3.45;1.70;;;20.40;66.00;;;;;;5013934;28;20070;-72
2021/06/03 01:03:27;;;;;;;3.75;1.65;;;20.40;66.50;;;;;;5013033;28;20104;-73
2021/06/03 01:06:03;;;;;;;2.85;1.30;;;20.40;66.40;;;;;;5013299;28;20084;-74
2021/06/03 01:08:42;;;;;;;4.35;1.70;;;20.40;66.30;;;;;;5014031;28;20037;-73
2021/06/03 01:11:24;;;;;;;4.10;1.90;;;20.40;66.50;;;;;;5015029;28;20068;-73
2021/06/03 01:14:17;;;;;;;2.55;1.75;;;20.30;66.80;;;;;;5015073;28;20020;-73
2021/06/03 01:16:43;;;;;;;3.60;1.80;;;20.30;67.00;;;;;;5012577;28;20070;-73
2021/06/03 01:19:14;;;;;;;2.47;1.70;;;20.20;67.20;;;;;;5014410;28;20065;-73
2021/06/03 01:21:48;;;;;;;2.50;1.77;;;20.20;67.50;;;;;;5013590;28;20108;-74
2021/06/03 01:24:29;;;;;;;7.40;2.63;;;20.20;67.70;;;;;;5014399;28;20053;-73
2021/06/03 01:27:04;;;;;;;4.63;2.53;;;20.00;68.70;;;;;;4998799;28;20025;-73
2021/06/03 01:29:38;;;;;;;4.68;2.47;;;20.00;68.90;;;;;;5013866;28;20482;-74
2021/06/03 01:32:04;;;;;;;2.90;2.00;;;19.90;69.40;;;;;;5014731;28;20110;-74
2021/06/03 01:34:31;;;;;;;3.25;2.00;;;19.80;69.20;;;;;;5012202;28;20041;-74
2021/06/03 01:36:57;;;;;;;3.67;1.90;;;19.80;69.60;;;;;;5013957;28;20025;-74
2021/06/03 01:39:23;;;;;;;4.15;2.13;;;19.80;69.50;;;;;;5013852;28;20109;-78
2021/06/03 01:41:49;;;;;;;4.30;2.00;;;19.80;69.60;;;;;;5014084;28;20037;-73
2021/06/03 01:44:15;;;;;;;3.80;2.40;;;19.80;69.60;;;;;;5014060;28;20026;-73
2021/06/03 01:46:41;;;;;;;5.18;2.40;;;19.80;69.70;;;;;;5011866;28;20126;-72
2021/06/03 01:49:07;;;;;;;2.85;1.80;;;19.80;69.70;;;;;;4996901;28;20038;-73
2021/06/03 01:51:33;;;;;;;4.40;2.13;;;19.80;69.80;;;;;;5013271;28;20084;-73
2021/06/03 01:53:59;;;;;;;4.30;1.70;;;19.70;70.00;;;;;;5012735;28;20030;-73
2021/06/03 01:56:25;;;;;;;2.88;2.00;;;19.70;70.00;;;;;;5011988;28;20029;-76
2021/06/03 01:58:51;;;;;;;4.25;1.98;;;19.70;70.20;;;;;;5013176;28;20389;-73
2021/06/03 02:01:19;;;;;;;3.47;1.75;;;19.70;70.20;;;;;;5014371;28;20033;-73
2021/06/03 02:03:45;;;;;;;4.45;2.10;;;19.70;70.10;;;;;;5013299;28;20180;-74
2021/06/03 02:06:11;;;;;;;3.25;2.20;;;19.70;70.10;;;;;;5013758;28;20038;-73
2021/06/03 02:08:37;;;;;;;4.43;1.98;;;19.70;70.20;;;;;;5012954;28;20040;-74
2021/06/03 02:11:06;;;;;;;2.17;1.77;;;19.60;70.30;;;;;;5014116;28;20113;-73
2021/06/03 02:13:39;;;;;;;2.85;1.70;;;19.60;70.40;;;;;;5012755;28;20037;-74
2021/06/03 02:16:24;;;;;;;2.28;1.80;;;19.60;70.50;;;;;;5013258;28;20030;-74
2021/06/03 02:18:58;;;;;;;4.15;2.05;;;19.60;70.60;;;;;;5013144;28;20042;-73
2021/06/03 02:21:25;;;;;;;3.15;2.00;;;19.50;70.70;;;;;;5011994;28;20470;-73
2021/06/03 02:23:52;;;;;;;4.03;2.35;;;19.50;70.90;;;;;;5012949;28;20045;-73
2021/06/03 02:26:17;;;;;;;4.53;2.83;;;19.50;71.40;;;;;;5013553;28;20034;-73
2021/06/03 02:28:44;;;;;;;4.25;2.70;;;19.40;71.90;;;;;;5012999;28;20105;-73
2021/06/03 02:31:11;;;;;;;5.18;2.45;;;19.30;72.30;;;;;;5012424;28;20034;-74
2021/06/03 02:33:36;;;;;;;3.22;2.88;;;19.20;72.60;;;;;;5012856;28;20037;-73
2021/06/03 02:36:03;;;;;;;3.65;3.28;;;19.10;73.30;;;;;;5013061;28;20030;-74
2021/06/03 02:38:32;;;;;;;3.17;2.83;;;19.00;73.60;;;;;;5012855;28;20022;-76
2021/06/03 02:41:00;;;;;;;3.30;2.42;;;19.00;73.90;;;;;;5012051;28;20052;-73
2021/06/03 02:43:26;;;;;;;2.92;2.50;;;19.00;73.70;;;;;;5012760;28;20018;-74
2021/06/03 02:45:52;;;;;;;3.17;2.15;;;19.00;73.40;;;;;;5011683;28;20042;-74
2021/06/03 02:48:18;;;;;;;3.67;2.20;;;19.10;73.40;;;;;;5011579;28;20068;-73
2021/06/03 02:50:44;;;;;;;3.38;2.72;;;19.10;73.10;;;;;;5010949;28;20034;-74
2021/06/03 02:53:11;;;;;;;2.58;1.83;;;19.20;73.10;;;;;;5011951;28;20113;-73
2021/06/03 02:55:37;;;;;;;3.90;2.72;;;19.20;72.90;;;;;;5011087;28;20394;-73
2021/06/03 02:58:03;;;;;;;3.28;2.28;;;19.30;73.10;;;;;;5012578;28;20033;-74
2021/06/03 03:00:32;;;;;;;3.55;2.47;;;19.40;72.60;;;;;;5012338;28;20038;-77
2021/06/03 03:02:59;;;;;;;2.92;2.53;;;19.50;72.40;;;;;;5012163;28;20064;-73
2021/06/03 03:05:25;;;;;;;3.05;2.40;;;19.60;72.30;;;;;;4995207;28;20033;-72
2021/06/03 03:07:50;;;;;;;4.75;2.50;;;19.60;72.30;;;;;;5010093;28;20161;-73
2021/06/03 03:10:23;;;;;;;3.15;2.28;;;19.60;72.10;;;;;;5012436;28;20042;-73
2021/06/03 03:12:48;;;;;;;4.07;2.60;;;19.70;71.90;;;;;;5010648;28;20022;-73
2021/06/03 03:15:17;;;;;;;3.67;2.33;;;19.70;71.70;;;;;;5012612;28;20044;-73
2021/06/03 03:17:43;;;;;;;4.80;2.10;;;19.80;71.40;;;;;;5010280;28;20034;-73
2021/06/03 03:20:13;;;;;;;2.75;2.20;;;19.80;71.30;;;;;;5011170;28;20095;-74
2021/06/03 03:22:40;;;;;;;2.85;2.38;;;19.90;71.20;;;;;;4994335;28;20076;-73
2021/06/03 03:25:08;;;;;;;2.75;2.15;;;20.00;71.00;;;;;;5012173;28;20054;-74
2021/06/03 03:27:35;;;;;;;6.32;2.80;;;20.00;70.80;;;;;;5011353;28;20022;-77
2021/06/03 03:30:03;;;;;;;4.00;2.65;;;20.00;70.70;;;;;;5010753;28;20025;-73
2021/06/03 03:32:29;;;;;;;4.00;2.67;;;20.00;70.70;;;;;;5011990;28;20026;-73
2021/06/03 03:34:54;;;;;;;4.45;2.50;;;20.00;70.80;;;;;;4993675;28;20036;-73
2021/06/03 03:37:20;;;;;;;3.42;2.38;;;20.00;70.80;;;;;;5010826;28;20034;-74
2021/06/03 03:39:46;;;;;;;4.47;2.35;;;20.00;70.70;;;;;;4993999;28;20454;-74
2021/06/03 03:42:12;;;;;;;2.70;2.20;;;20.00;70.70;;;;;;5010678;28;20038;-74
2021/06/03 03:44:37;;;;;;;4.22;1.98;;;20.00;70.50;;;;;;5010392;28;20080;-78
2021/06/03 03:47:03;;;;;;;3.28;1.98;;;20.00;70.30;;;;;;4994235;28;20033;-73
2021/06/03 03:49:29;;;;;;;2.95;2.35;;;20.00;70.30;;;;;;5011001;28;20375;-73
2021/06/03 03:51:55;;;;;;;5.22;2.60;;;20.00;70.30;;;;;;5010252;28;20038;-73
2021/06/03 03:54:20;;;;;;;6.57;2.47;;;20.10;70.30;;;;;;5013299;28;20041;-73
2021/06/03 03:56:46;;;;;;;4.22;2.65;;;20.10;70.30;;;;;;5012182;28;20425;-73
2021/06/03 03:59:12;;;;;;;4.13;2.15;;;20.10;70.30;;;;;;5011568;28;20030;-73
2021/06/03 04:01:37;;;;;;;5.55;2.08;;;20.10;70.20;;;;;;5011036;28;20091;-78
2021/06/03 04:04:03;;;;;;;3.95;2.13;;;20.10;70.40;;;;;;5010790;28;20034;-72
2021/06/03 04:06:29;;;;;;;4.88;2.72;;;20.10;70.30;;;;;;5010526;28;20080;-73
2021/06/03 04:08:55;;;;;;;3.55;2.20;;;20.20;70.30;;;;;;5013505;28;20026;-74
2021/06/03 04:11:24;;;;;;;7.90;2.90;;;20.20;70.30;;;;;;5019693;28;20481;-72
2021/06/03 04:13:50;;;;;;;5.03;2.55;;;20.10;70.70;;;;;;5018524;28;20072;-73
2021/06/03 04:16:16;;;;;;;3.78;2.33;;;20.10;70.70;;;;;;5018760;28;20061;-73
2021/06/03 04:18:42;;;;;;;3.55;2.30;;;20.10;70.70;;;;;;4998149;28;20116;-75
2021/06/03 04:21:08;;;;;;;5.95;2.80;;;20.20;70.50;;;;;;5018540;28;20049;-74
2021/06/03 04:23:33;;;;;;;4.13;2.70;;;20.70;69.60;;;;;;5018418;28;20048;-74
2021/06/03 04:25:59;;;;;;;2.92;2.42;;;21.20;68.30;;;;;;5017517;28;20474;-74
2021/06/03 04:28:25;;;;;;;6.10;2.70;;;21.20;68.00;;;;;;5017629;28;20056;-74
2021/06/03 04:30:50;;;;;;;4.60;2.92;;;21.10;68.20;;;;;;5017553;28;20070;-74
2021/06/03 04:33:20;;;;;;;3.88;2.47;;;20.90;68.70;;;;;;5017043;28;20124;-72
2021/06/03 04:35:46;;;;;;;3.80;2.80;;;20.80;69.10;;;;;;5016297;28;20056;-73
2021/06/03 04:38:11;;;;;;;5.38;2.83;;;20.60;69.70;;;;;;5018166;28;20479;-73
2021/06/03 04:40:37;;;;;;;4.60;2.67;;;20.50;70.00;;;;;;5018478;28;20038;-72
2021/06/03 04:43:03;;;;;;;4.03;2.80;;;20.50;70.10;;;;;;5017564;28;20600;-74
2021/06/03 04:45:30;;;;;;;4.95;3.22;;;20.50;70.10;;;;;;5017243;28;20026;-74
2021/06/03 04:47:55;;;;;;;6.07;3.35;;;20.50;70.40;;;;;;5017058;28;20026;-73
2021/06/03 04:50:22;;;;;;;6.43;3.53;;;20.40;70.50;;;;;;5017402;28;20390;-74
2021/06/03 04:52:48;;;;;;;5.00;2.83;;;20.40;70.60;;;;;;5016733;28;20030;-75
2021/06/03 04:55:17;;;;;;;5.13;3.90;;;20.40;70.50;;;;;;5017757;28;20030;-74
2021/06/03 04:57:43;;;;;;;5.03;3.50;;;20.60;70.40;;;;;;5016953;28;20397;-77
2021/06/03 05:00:12;;;;;;;3.97;3.67;;;20.90;70.00;;;;;;5017326;28;20073;-73
2021/06/03 05:02:38;;;;;;;4.57;3.20;;;22.00;67.50;;;;;;5017012;28;20030;-73
2021/06/03 05:05:06;;;;;;;4.95;3.38;;;22.30;66.40;;;;;;5017862;28;20471;-75
2021/06/03 05:07:32;;;;;;;5.40;3.13;;;23.40;64.40;;;;;;5018037;28;20060;-73
2021/06/03 05:09:57;;;;;;;4.75;2.67;;;24.40;62.10;;;;;;5017921;28;20087;-73
2021/06/03 05:12:23;;;;;;;4.32;2.38;;;25.30;60.20;;;;;;5017258;28;20057;-74
2021/06/03 05:14:48;;;;;;;4.45;2.90;;;26.50;57.50;;;;;;5016482;28;20030;-74
2021/06/03 05:17:14;;;;;;;2.78;2.40;;;27.70;54.00;;;;;;5016658;28;20033;-74
2021/06/03 05:19:40;;;;;;;3.63;2.42;;;28.80;51.30;;;;;;5016659;28;20030;-74
2021/06/03 05:22:06;;;;;;;4.35;2.28;;;28.60;50.00;;;;;;5012623;28;20038;-74
2021/06/03 05:24:32;;;;;;;2.63;2.10;;;27.60;51.70;;;;;;5013834;28;20046;-73
2021/06/03 05:26:59;;;;;;;4.97;2.78;;;26.70;53.70;;;;;;5014863;28;20065;-73
2021/06/03 05:29:25;;;;;;;4.13;2.10;;;26.20;54.90;;;;;;5015123;28;20029;-74
2021/06/03 05:31:52;;;;;;;5.20;2.50;;;25.80;56.20;;;;;;5014004;28;20109;-74
2021/06/03 05:34:18;;;;;;;4.75;2.80;;;26.50;55.10;;;;;;5014711;28;20034;-73
2021/06/03 05:36:44;;;;;;;4.15;2.53;;;26.60;54.60;;;;;;5013327;28;20033;-73
2021/06/03 05:39:11;;;;;;;5.03;2.33;;;26.20;55.10;;;;;;4980138;28;20030;-74
2021/06/03 05:41:37;;;;;;;3.92;2.10;;;25.70;56.10;;;;;;4997432;28;20046;-73
2021/06/03 05:44:08;;;;;;;3.15;2.10;;;25.30;57.20;;;;;;5013038;28;20037;-73
2021/06/03 05:46:35;;;;;;;3.15;2.17;;;24.90;58.00;;;;;;5014422;28;20045;-73
2021/06/03 05:49:01;;;;;;;4.97;2.50;;;24.70;58.80;;;;;;5012992;28;20037;-73
2021/06/03 05:51:27;;;;;;;4.75;2.38;;;24.40;59.70;;;;;;5014225;28;20080;-76
2021/06/03 05:53:53;;;;;;;4.82;2.65;;;24.20;60.30;;;;;;5003740;28;20129;-74
2021/06/03 05:56:19;;;;;;;4.88;2.80;;;24.00;60.90;;;;;;5011624;28;20104;-73
2021/06/03 05:58:45;;;;;;;3.90;2.75;;;23.90;61.90;;;;;;4995039;28;20026;-72
2021/06/03 06:01:11;;;;;;;4.80;3.17;;;23.70;62.00;;;;;;5012201;28;20033;-73
2021/06/03 06:03:41;;;;;;;5.32;3.83;;;23.50;62.60;;;;;;5014427;28;20044;-73
2021/06/03 06:06:23;;;;;;;5.20;4.30;;;23.40;63.00;;;;;;4996094;28;20072;-74
2021/06/03 06:08:54;;;;;;;6.82;5.38;;;23.40;63.20;;;;;;5011798;28;20033;-73
2021/06/03 06:11:20;;;;;;;6.90;6.20;;;23.50;63.10;;;;;;5013174;28;20036;-73
2021/06/03 06:13:46;;;;;;;4.72;3.97;;;23.60;62.80;;;;;;5014150;28;20022;-72
2021/06/03 06:16:13;;;;;;;5.97;4.60;;;23.70;63.10;;;;;;5007932;28;20080;-73
2021/06/03 06:18:40;;;;;;;4.78;4.28;;;23.70;62.90;;;;;;4999238;28;20041;-72
2021/06/03 06:21:07;;;;;;;6.53;4.25;;;23.90;63.00;;;;;;4993559;28;20121;-73
2021/06/03 06:23:35;;;;;;;7.60;5.72;;;23.90;63.10;;;;;;5002703;28;20092;-73
2021/06/03 06:26:02;;;;;;;8.02;6.55;;;24.10;62.70;;;;;;5003861;28;20054;-73
2021/06/03 06:28:28;;;;;;;7.03;6.25;;;24.20;62.90;;;;;;5009996;28;20030;-73
2021/06/03 06:30:53;;;;;;;5.85;3.58;;;24.50;61.80;;;;;;5013634;28;20496;-77
2021/06/03 06:33:20;;;;;;;5.53;4.00;;;24.90;61.60;;;;;;5003211;28;20030;-73
2021/06/03 06:35:48;;;;;;;6.28;5.43;;;25.20;61.30;;;;;;4977035;28;20483;-73
2021/06/03 06:38:14;;;;;;;4.53;3.13;;;25.40;60.60;;;;;;4992492;28;20352;-73
2021/06/03 06:40:40;;;;;;;7.30;4.53;;;25.70;60.60;;;;;;4993295;28;20429;-73
2021/06/03 06:43:06;;;;;;;4.88;3.40;;;25.90;60.00;;;;;;5003723;28;20164;-73
2021/06/03 06:45:32;;;;;;;4.30;3.15;;;26.00;59.90;;;;;;5012793;28;20060;-73
2021/06/03 06:47:58;;;;;;;6.32;3.70;;;26.00;60.40;;;;;;5003917;28;20041;-77
2021/06/03 06:50:25;;;;;;;4.55;3.15;;;25.90;61.00;;;;;;5001864;28;20026;-73
2021/06/03 06:52:53;;;;;;;7.57;3.83;;;25.80;61.40;;;;;;5002090;28;20033;-74
2021/06/03 06:55:19;;;;;;;4.40;3.50;;;25.60;62.00;;;;;;5002078;28;20049;-74
2021/06/03 06:57:45;;;;;;;5.55;4.28;;;25.40;62.50;;;;;;4990416;28;20034;-73
2021/06/03 07:00:12;;;;;;;4.93;3.95;;;25.30;63.00;;;;;;5006790;28;20022;-74
2021/06/03 07:02:38;;;;;;;3.80;3.40;;;25.10;63.20;;;;;;5017128;28;20022;-71
2021/06/03 07:05:07;;;;;;;5.55;5.05;;;25.00;63.90;;;;;;5015229;28;20030;-73
2021/06/03 07:07:33;;;;;;;6.82;4.82;;;24.90;64.20;;;;;;5014711;28;20037;-73
2021/06/03 07:09:59;;;;;;;7.30;5.40;;;24.70;64.50;;;;;;5013272;28;20038;-76
2021/06/03 07:12:25;;;;;;;12.52;7.55;;;24.60;65.20;;;;;;5011377;28;20060;-74
2021/06/03 07:14:50;;;;;;;10.23;6.57;;;24.40;65.50;;;;;;5014862;28;20029;-73
2021/06/03 07:17:17;;;;;;;12.80;8.15;;;24.40;65.90;;;;;;5011723;28;20038;-73
2021/06/03 07:19:42;;;;;;;12.18;6.43;;;24.30;65.80;;;;;;5013444;28;20478;-73
2021/06/03 07:22:08;;;;;;;6.15;4.65;;;24.40;65.60;;;;;;5010481;28;20070;-73
2021/06/03 07:24:35;;;;;;;7.05;4.28;;;24.40;65.60;;;;;;5012242;28;20066;-72
2021/06/03 07:27:02;;;;;;;10.38;7.22;;;24.50;65.40;;;;;;5011272;28;20033;-76
2021/06/03 07:29:28;;;;;;;5.70;3.78;;;24.90;64.60;;;;;;4973382;28;20433;-72
2021/06/03 07:31:54;;;;;;;4.55;3.55;;;25.70;64.10;;;;;;4992012;28;20026;-74
2021/06/03 07:34:20;;;;;;;5.38;3.92;;;26.70;61.40;;;;;;5011478;28;20299;-74
2021/06/03 07:36:45;;;;;;;8.63;4.60;;;27.60;59.90;;;;;;5011081;28;20025;-72
2021/06/03 07:39:12;;;;;;;6.28;4.05;;;28.20;57.70;;;;;;5006834;28;20026;-73
2021/06/03 07:41:37;;;;;;;5.55;3.95;;;28.60;56.50;;;;;;4994653;28;20038;-73
2021/06/03 07:44:04;;;;;;;6.80;4.70;;;28.90;56.10;;;;;;4991993;28;20533;-76
2021/06/03 07:46:30;;;;;;;6.07;3.90;;;29.00;55.20;;;;;;4992939;28;20097;-72
2021/06/03 07:48:56;;;;;;;3.88;3.45;;;28.90;55.00;;;;;;5004682;28;20184;-72
2021/06/03 07:51:22;;;;;;;5.45;3.20;;;28.80;55.40;;;;;;5010012;28;20766;-72
2021/06/03 07:53:48;;;;;;;7.30;3.97;;;28.40;56.00;;;;;;5011906;28;20068;-73
2021/06/03 07:56:15;;;;;;;6.63;3.40;;;28.10;56.80;;;;;;5003012;28;20030;-73
2021/06/03 07:58:40;;;;;;;6.22;3.88;;;28.00;57.10;;;;;;4991267;28;20379;-72
2021/06/03 08:01:06;;;;;;;7.97;6.65;;;28.00;56.90;;;;;;5005494;28;20038;-77
2021/06/03 08:03:32;;;;;;;5.35;3.58;;;28.10;56.30;;;;;;5011773;28;20030;-71
2021/06/03 08:05:57;;;;;;;8.52;4.90;;;28.30;56.30;;;;;;5012017;28;20382;-71
2021/06/03 08:08:23;;;;;;;5.93;4.20;;;28.30;56.10;;;;;;5024885;28;20057;-71
2021/06/03 08:10:49;;;;;;;10.48;4.07;;;28.30;56.00;;;;;;5004759;28;20052;-72
2021/06/03 08:13:15;;;;;;;6.85;3.97;;;28.10;56.20;;;;;;5015200;28;20030;-71
2021/06/03 08:15:42;;;;;;;7.82;3.38;;;28.00;56.60;;;;;;5009420;28;20041;-72
2021/06/03 08:18:09;;;;;;;6.80;3.47;;;27.80;57.80;;;;;;5009497;28;20029;-76
2021/06/03 08:20:48;;;;;;;6.65;3.47;;;27.40;58.80;;;;;;5012029;28;20030;-72
2021/06/03 08:23:16;;;;;;;4.55;2.88;;;27.20;59.50;;;;;;5010019;28;20112;-72
2021/06/03 08:25:42;;;;;;;4.18;2.75;;;26.90;60.00;;;;;;5011704;28;20042;-72
2021/06/03 08:28:08;;;;;;;5.70;3.22;;;26.70;60.60;;;;;;5011493;28;20057;-77
2021/06/03 08:30:35;;;;;;;6.53;4.65;;;26.50;61.10;;;;;;5011858;28;20061;-73
2021/06/03 08:33:01;;;;;;;6.50;3.35;;;26.20;61.70;;;;;;5011395;28;20026;-72
2021/06/03 08:35:27;;;;;;;8.75;3.35;;;25.70;62.40;;;;;;4989871;28;20641;-73
2021/06/03 08:37:56;;;;;;;5.97;3.53;;;25.60;63.00;;;;;;4992247;28;20027;-74
2021/06/03 08:40:28;;;;;;;5.70;3.35;;;25.50;63.50;;;;;;4991714;28;20037;-73
2021/06/03 08:42:56;;;;;;;7.53;3.60;;;25.40;63.40;;;;;;4992889;28;20109;-72
2021/06/03 08:45:24;;;;;;;4.75;3.00;;;25.30;63.50;;;;;;4997173;28;20047;-71
2021/06/03 08:47:52;;;;;;;5.78;3.65;;;25.10;65.00;;;;;;5012122;28;20030;-73
2021/06/03 08:50:18;;;;;;;7.25;4.20;;;24.80;66.50;;;;;;5010381;28;20046;-73
2021/06/03 08:52:44;;;;;;;5.68;3.97;;;24.60;67.50;;;;;;5011022;28;20081;-74
2021/06/03 08:58:11;;;;;;;8.00;4.82;;;24.40;69.00;;;;;;5017046;28;20037;-74
2021/06/03 09:00:38;;;;;;;5.38;4.22;;;24.20;70.20;;;;;;5016810;28;20117;-73
2021/06/03 09:03:04;;;;;;;5.78;3.75;;;24.10;70.20;;;;;;5017990;28;20030;-75
2021/06/03 09:05:29;;;;;;;5.30;3.20;;;24.00;70.80;;;;;;5016627;28;20032;-75
2021/06/03 09:07:56;;;;;;;6.85;3.42;;;23.80;70.90;;;;;;5017659;28;20451;-77
2021/06/03 09:10:32;;;;;;;5.78;4.10;;;23.70;71.40;;;;;;5018255;28;20032;-76
2021/06/03 09:13:14;;;;;;;8.10;4.80;;;23.50;72.60;;;;;;5022392;28;20033;-78
2021/06/03 09:15:43;;;;;;;7.83;4.37;;;23.30;73.30;;;;;;5019588;28;20496;-78
2021/06/03 09:18:09;;;;;;;6.82;4.40;;;23.10;74.10;;;;;;5021147;28;20026;-78
2021/06/03 09:20:38;;;;;;;7.22;3.95;;;22.90;74.50;;;;;;5020616;28;20041;-77
2021/06/03 09:23:03;;;;;;;3.92;3.58;;;22.80;74.80;;;;;;5022720;28;20033;-78
2021/06/03 09:25:33;;;;;;;5.70;3.85;;;22.60;75.00;;;;;;5019776;28;20069;-79
2021/06/03 09:28:21;;;;;;;4.70;3.40;;;22.60;75.30;;;;;;5022172;28;20021;-78
2021/06/03 09:31:10;;;;;;;5.70;4.22;;;22.70;75.10;;;;;;5022681;28;20037;-77
2021/06/03 09:33:37;;;;;;;4.90;4.00;;;22.80;75.20;;;;;;5024468;28;20190;-82
2021/06/03 09:36:04;;;;;;;5.13;4.47;;;22.80;75.70;;;;;;5031146;28;20034;-81
2021/06/03 09:38:29;;;;;;;7.68;5.15;;;22.70;76.80;;;;;;5017613;28;20064;-78
2021/06/03 09:40:55;;;;;;;8.75;5.10;;;22.60;77.10;;;;;;5016213;28;20042;-77
2021/06/03 09:43:22;;;;;;;6.85;5.10;;;22.70;77.50;;;;;;5013543;28;20030;-78
2021/06/03 09:45:57;;;;;;;8.50;6.32;;;22.90;77.60;;;;;;4994739;28;20035;-76
2021/06/03 09:48:41;;;;;;;7.22;6.32;;;23.10;76.90;;;;;;4994136;28;20031;-77
2021/06/03 09:51:23;;;;;;;7.55;6.85;;;23.30;76.20;;;;;;4995539;28;20077;-77
2021/06/03 09:53:57;;;;;;;8.35;7.25;;;23.60;76.10;;;;;;4999558;28;20090;-78
2021/06/03 09:56:32;;;;;;;8.77;7.85;;;23.70;75.60;;;;;;5017337;28;20034;-77
2021/06/03 09:58:58;;;;;;;8.55;7.32;;;23.70;76.00;;;;;;5028449;28;20017;-77
2021/06/03 10:01:48;;;;;;;8.50;7.63;;;23.90;75.60;;;;;;5025420;28;20038;-77
2021/06/03 10:04:22;;;;;;;9.35;8.32;;;24.10;75.60;;;;;;4983177;28;20034;-76
2021/06/03 10:06:55;;;;;;;9.88;7.60;;;24.20;75.50;;;;;;5025888;28;20070;-75
2021/06/03 10:09:43;;;;;;;9.98;8.95;;;24.20;75.20;;;;;;5022598;28;20368;-80
2021/06/03 10:12:26;;;;;;;7.47;6.78;;;24.30;75.30;;;;;;5033101;28;20033;-77
2021/06/03 10:14:59;;;;;;;7.50;6.75;;;24.50;74.70;;;;;;5032361;28;20056;-79
2021/06/03 10:17:30;;;;;;;6.75;6.15;;;24.90;74.40;;;;;;5033653;28;20033;-77
2021/06/03 10:19:59;;;;;;;6.43;5.80;;;25.30;73.80;;;;;;5031483;28;20038;-79
2021/06/03 10:22:36;;;;;;;7.10;6.40;;;25.80;72.10;;;;;;5033242;28;20064;-80
2021/06/03 10:25:19;;;;;;;7.20;6.50;;;26.10;71.10;;;;;;5034016;28;20049;-80
2021/06/03 10:27:50;;;;;;;;;;;26.50;69.90;;;;;;5035445;28;20074;-80
2021/06/03 10:30:20;;;;;;;8.73;7.28;;;26.60;69.20;;;;;;5033272;28;20064;-81
2021/06/03 10:32:49;;;;;;;7.75;7.05;;;26.40;68.40;;;;;;5033333;28;20022;-80
2021/06/03 10:35:23;;;;;;;7.25;6.55;;;26.30;69.00;;;;;;5033568;28;20041;-80
2021/06/03 10:37:49;;;;;;;9.30;8.40;;;26.40;69.00;;;;;;5026835;28;20033;-81
2021/06/03 10:40:28;;;;;;;9.57;8.40;;;26.30;69.40;;;;;;5028665;28;20026;-80
2021/06/03 10:42:54;;;;;;;9.27;7.47;;;26.00;68.50;;;;;;5028167;28;20022;-79
2021/06/03 10:45:24;;;;;;;11.57;10.07;;;25.80;68.80;;;;;;5032342;28;20046;-81
2021/06/03 10:47:50;;;;;;;10.20;9.15;;;25.70;69.30;;;;;;5033131;28;20014;-81
2021/06/03 10:50:44;;;;;;;11.18;10.07;;;25.60;69.20;;;;;;5022023;28;20036;-81
2021/06/03 10:53:18;;;;;;;12.93;10.80;;;25.70;69.80;;;;;;5008533;28;20030;-81
2021/06/03 10:55:48;;;;;;;12.35;9.55;;;25.70;69.20;;;;;;5009787;28;20022;-80
2021/06/03 10:58:15;;;;;;;10.95;9.93;;;26.10;70.00;;;;;;5013099;28;20045;-80
2021/06/03 11:00:40;;;;;;;9.82;8.88;;;27.00;68.70;;;;;;5012521;28;20042;-80
2021/06/03 11:03:19;;;;;;;10.65;8.98;;;27.10;67.80;;;;;;5012442;28;20053;-80
2021/06/03 11:05:58;;;;;;;7.72;7.00;;;27.40;66.70;;;;;;5012109;28;20014;-80
2021/06/03 11:09:03;;;;;;;12.18;9.60;;;27.80;66.40;;;;;;5011623;28;20033;-82
2021/06/03 11:11:47;;;;;;;10.35;9.10;;;27.80;66.00;;;;;;5011234;28;20042;-78
2021/06/03 11:14:15;;;;;;;10.82;9.82;;;27.80;64.60;;;;;;5030108;28;20071;-78
2021/06/03 11:16:40;;;;;;;9.30;8.45;;;27.90;64.60;;;;;;5012037;28;20021;-78
2021/06/03 11:19:16;;;;;;;9.02;8.13;;;27.70;64.10;;;;;;5012980;28;20061;-78
2021/06/03 11:21:43;;;;;;;11.70;9.13;;;27.70;66.00;;;;;;5010659;28;20049;-78
2021/06/03 11:24:08;;;;;;;8.50;7.63;;;28.00;65.70;;;;;;5011194;28;20148;-77
2021/06/03 11:26:37;;;;;;;8.13;7.30;;;28.30;64.30;;;;;;5012310;28;20107;-78
2021/06/03 11:29:26;;;;;;;10.88;9.25;;;28.30;64.10;;;;;;5011761;28;20037;-76
2021/06/03 11:32:16;;;;;;;8.50;7.70;;;28.60;63.30;;;;;;5011169;28;20030;-76
2021/06/03 11:34:46;;;;;;;9.13;8.23;;;28.50;63.30;;;;;;5011755;28;20025;-75
2021/06/03 11:37:26;;;;;;;9.52;8.07;;;28.40;62.80;;;;;;5011533;28;20064;-75
2021/06/03 11:39:57;;;;;;;10.93;9.00;;;28.40;63.40;;;;;;5010608;28;20022;-75
2021/06/03 11:42:37;;;;;;;12.03;9.40;;;28.10;62.80;;;;;;5011576;28;20120;-76
2021/06/03 11:45:04;;;;;;;11.90;8.65;;;27.60;63.70;;;;;;5010068;28;20129;-78
2021/06/03 11:47:54;;;;;;;11.02;9.88;;;27.70;64.30;;;;;;5010828;28;20581;-81
2021/06/03 11:50:20;;;;;;;12.80;10.80;;;27.70;63.70;;;;;;5011689;28;20486;-77
2021/06/03 11:53:01;;;;;;;10.60;8.88;;;27.30;63.80;;;;;;5009534;28;20109;-75
2021/06/03 11:55:37;;;;;;;10.88;8.50;;;26.90;65.40;;;;;;5006404;28;20124;-75
2021/06/03 11:58:15;;;;;;;8.75;7.95;;;27.10;66.20;;;;;;5010331;28;20030;-76
2021/06/03 12:00:47;;;;;;;9.48;8.48;;;27.60;66.00;;;;;;5011280;28;20038;-76
2021/06/03 12:03:26;;;;;;;12.85;11.55;;;28.10;65.30;;;;;;5010311;28;20060;-76
2021/06/03 12:05:55;;;;;;;11.45;10.23;;;27.90;63.50;;;;;;5010966;28;20030;-74
2021/06/03 12:08:32;;;;;;;12.18;10.23;;;27.40;64.30;;;;;;5011910;28;20471;-76
2021/06/03 12:10:58;;;;;;;12.00;10.80;;;26.90;65.10;;;;;;5011436;28;20109;-76
2021/06/03 12:13:24;;;;;;;11.18;9.93;;;26.90;66.20;;;;;;5010089;28;20068;-76
2021/06/03 12:15:49;;;;;;;15.15;12.35;;;27.10;66.90;;;;;;5009391;28;20053;-75
2021/06/03 12:18:15;;;;;;;17.30;12.45;;;27.30;65.00;;;;;;5010401;28;20080;-75
2021/06/03 12:20:41;;;;;;;12.85;11.55;;;27.20;64.80;;;;;;5010239;28;20498;-75
2021/06/03 12:23:10;;;;;;;12.00;10.57;;;27.00;64.80;;;;;;5011321;28;20041;-75
2021/06/03 12:25:38;;;;;;;12.50;11.20;;;26.80;65.50;;;;;;5010851;28;20092;-75
2021/06/03 12:28:05;;;;;;;11.95;10.50;;;27.00;65.30;;;;;;4993999;28;20068;-74
2021/06/03 12:30:34;;;;;;;13.75;10.75;;;27.30;64.70;;;;;;5011934;28;20038;-80
2021/06/03 12:33:00;;;;;;;9.82;8.30;;;27.60;64.30;;;;;;5015471;28;20029;-75
2021/06/03 12:35:41;;;;;;;10.23;9.23;;;27.70;63.70;;;;;;5014103;28;20463;-74
2021/06/03 12:38:08;;;;;;;10.02;8.73;;;27.40;63.90;;;;;;5015716;28;20085;-74
2021/06/03 12:40:35;;;;;;;8.95;7.80;;;27.10;65.60;;;;;;5013815;28;20034;-78
2021/06/03 12:43:07;;;;;;;9.10;8.15;;;27.10;65.50;;;;;;5014252;28;20045;-74
2021/06/03 12:45:37;;;;;;;9.48;8.52;;;27.30;64.40;;;;;;5013055;28;20131;-80
2021/06/03 12:48:05;;;;;;;8.52;7.63;;;27.40;64.00;;;;;;5015296;28;20542;-74
2021/06/03 12:50:31;;;;;;;9.05;8.18;;;27.20;64.50;;;;;;5013598;28;20037;-75
2021/06/03 12:52:56;;;;;;;11.52;10.15;;;27.10;64.30;;;;;;5013545;28;20022;-75
2021/06/03 12:55:23;;;;;;;8.32;7.50;;;27.00;64.50;;;;;;5013554;28;20030;-75
2021/06/03 12:57:52;;;;;;;12.88;9.02;;;26.90;65.60;;;;;;5007563;28;20034;-75